SXS7UJ EDDK-LTAI
Flight info
| Callsign | SXS7UJ |
|---|---|
| Flight time | N/A |
| Altitude | 37000 |
| Route | KUMIK1B KUMIK L603 TESGA DCT ESATI DCT DETEV DCT DINKU DCT BESNI DCT GOMIG DCT OBUTI DCT RAVAK DCT NISVA N131 RODIP UN131 KULAR UT39 NESIL |
| Aircraft | B38M/M-SDE1FGHILORVWXY/HB1 |
Departure
| Time | 2026-05-04 14:13 |
|---|---|
| Airport | Cologne Bonn Airport (EDDK) |
Arrival
| Time | N/A |
|---|---|
| Airport | Antalya International Airport (LTAI) |
| Time | Latitude | Longitude | Altitude | Speed | Heading |
|---|---|---|---|---|---|
| 2026-05-04 13:53 | 50.88060 | 7.12193 | 237 ft | 0 kts | 216° |
| 2026-05-04 13:55 | 50.88060 | 7.12194 | 235 ft | 0 kts | 216° |
| 2026-05-04 14:03 | 50.88076 | 7.12210 | 235 ft | 4 kts | 207° |
| 2026-05-04 14:03 | 50.88101 | 7.12223 | 237 ft | 4 kts | 182° |
| 2026-05-04 14:04 | 50.88129 | 7.12206 | 239 ft | 2 kts | 126° |
| 2026-05-04 14:09 | 50.88128 | 7.12209 | 237 ft | 2 kts | 126° |
| 2026-05-04 14:09 | 50.88102 | 7.12265 | 235 ft | 7 kts | 123° |
| 2026-05-04 14:10 | 50.88080 | 7.12359 | 237 ft | 8 kts | 120° |
| 2026-05-04 14:10 | 50.88043 | 7.12458 | 236 ft | 11 kts | 121° |
| 2026-05-04 14:10 | 50.88008 | 7.12551 | 235 ft | 9 kts | 121° |
| 2026-05-04 14:10 | 50.87989 | 7.12627 | 239 ft | 7 kts | 102° |
| 2026-05-04 14:11 | 50.87992 | 7.12730 | 238 ft | 11 kts | 78° |
| 2026-05-04 14:11 | 50.88013 | 7.12897 | 241 ft | 8 kts | 82° |
| 2026-05-04 14:11 | 50.88011 | 7.12958 | 241 ft | 6 kts | 122° |
| 2026-05-04 14:12 | 50.87990 | 7.12991 | 241 ft | 5 kts | 137° |
| 2026-05-04 14:12 | 50.87927 | 7.13083 | 241 ft | 31 kts | 137° |
| 2026-05-04 14:12 | 50.86876 | 7.14611 | 297 ft | 158 kts | 137° |
| 2026-05-04 14:13 | 50.86090 | 7.15883 | 957 ft | 162 kts | 133° |
| 2026-05-04 14:13 | 50.85970 | 7.16087 | 1075 ft | 164 kts | 133° |
| 2026-05-04 14:14 | 50.84770 | 7.17866 | 2012 ft | 175 kts | 139° |
| 2026-05-04 14:14 | 50.83841 | 7.19126 | 2786 ft | 178 kts | 142° |
| 2026-05-04 14:15 | 50.81879 | 7.21896 | 4122 ft | 210 kts | 132° |
| 2026-05-04 14:15 | 50.81135 | 7.26904 | 5264 ft | 265 kts | 89° |
| 2026-05-04 14:16 | 50.80831 | 7.32819 | 7047 ft | 273 kts | 102° |
| 2026-05-04 14:16 | 50.80515 | 7.35816 | 7913 ft | 279 kts | 102° |
| 2026-05-04 14:17 | 50.79929 | 7.41929 | 9751 ft | 287 kts | 101° |
| 2026-05-04 14:17 | 50.79640 | 7.45093 | 10507 ft | 297 kts | 101° |
| 2026-05-04 14:17 | 50.79018 | 7.51989 | 11387 ft | 338 kts | 101° |
| 2026-05-04 14:18 | 50.78679 | 7.55774 | 11734 ft | 358 kts | 101° |
| 2026-05-04 14:18 | 50.77065 | 7.63244 | 13001 ft | 368 kts | 119° |
| 2026-05-04 14:19 | 50.74723 | 7.70581 | 14412 ft | 379 kts | 119° |
| 2026-05-04 14:19 | 50.73517 | 7.74301 | 15065 ft | 382 kts | 120° |
| 2026-05-04 14:19 | 50.72299 | 7.78045 | 15694 ft | 385 kts | 120° |
| 2026-05-04 14:19 | 50.71067 | 7.81822 | 16271 ft | 389 kts | 120° |
| 2026-05-04 14:20 | 50.69844 | 7.85562 | 16880 ft | 392 kts | 120° |
| 2026-05-04 14:20 | 50.68562 | 7.89478 | 17467 ft | 396 kts | 120° |
| 2026-05-04 14:20 | 50.67291 | 7.93356 | 18040 ft | 400 kts | 120° |
| 2026-05-04 14:21 | 50.64708 | 8.01213 | 19040 ft | 407 kts | 120° |
| 2026-05-04 14:21 | 50.63402 | 8.05174 | 19529 ft | 409 kts | 120° |
| 2026-05-04 14:21 | 50.62080 | 8.09181 | 19995 ft | 413 kts | 120° |
| 2026-05-04 14:21 | 50.60752 | 8.13198 | 20473 ft | 415 kts | 121° |
| 2026-05-04 14:22 | 50.59414 | 8.17240 | 20935 ft | 419 kts | 121° |
| 2026-05-04 14:22 | 50.58060 | 8.21323 | 21419 ft | 421 kts | 121° |
| 2026-05-04 14:22 | 50.56701 | 8.25415 | 21913 ft | 424 kts | 121° |
| 2026-05-04 14:22 | 50.55330 | 8.29539 | 22366 ft | 427 kts | 121° |
| 2026-05-04 14:23 | 50.52549 | 8.37877 | 23286 ft | 434 kts | 122° |
| 2026-05-04 14:23 | 50.51138 | 8.42097 | 23706 ft | 439 kts | 122° |
| 2026-05-04 14:23 | 50.49710 | 8.46362 | 24047 ft | 442 kts | 122° |
| 2026-05-04 14:24 | 50.48273 | 8.50644 | 24438 ft | 444 kts | 122° |
| 2026-05-04 14:24 | 50.46830 | 8.54944 | 24878 ft | 447 kts | 122° |
| 2026-05-04 14:24 | 50.45371 | 8.59263 | 25246 ft | 449 kts | 123° |
| 2026-05-04 14:24 | 50.43554 | 8.63095 | 25589 ft | 441 kts | 139° |
| 2026-05-04 14:25 | 50.41363 | 8.66490 | 25902 ft | 445 kts | 139° |
| 2026-05-04 14:25 | 50.36919 | 8.73302 | 26579 ft | 449 kts | 140° |
| 2026-05-04 14:25 | 50.34664 | 8.76707 | 26934 ft | 451 kts | 140° |
| 2026-05-04 14:26 | 50.32397 | 8.80119 | 27302 ft | 453 kts | 140° |
| 2026-05-04 14:26 | 50.30112 | 8.83549 | 27631 ft | 456 kts | 140° |
| 2026-05-04 14:26 | 50.27821 | 8.86984 | 27989 ft | 457 kts | 141° |
| 2026-05-04 14:26 | 50.25524 | 8.90422 | 28309 ft | 459 kts | 141° |
| 2026-05-04 14:27 | 50.23206 | 8.93886 | 28613 ft | 462 kts | 141° |
| 2026-05-04 14:27 | 50.20881 | 8.97357 | 28925 ft | 463 kts | 141° |
| 2026-05-04 14:27 | 50.18543 | 9.00841 | 29293 ft | 464 kts | 141° |
| 2026-05-04 14:27 | 50.16212 | 9.04310 | 29743 ft | 463 kts | 141° |
| 2026-05-04 14:28 | 50.13887 | 9.07765 | 30165 ft | 462 kts | 141° |
| 2026-05-04 14:28 | 50.11561 | 9.11218 | 30503 ft | 461 kts | 141° |
| 2026-05-04 14:28 | 50.09236 | 9.14665 | 30845 ft | 461 kts | 141° |
| 2026-05-04 14:28 | 50.06920 | 9.18095 | 31137 ft | 461 kts | 141° |
| 2026-05-04 14:29 | 50.02236 | 9.25020 | 31578 ft | 466 kts | 141° |
| 2026-05-04 14:29 | 49.97538 | 9.31947 | 32329 ft | 464 kts | 141° |
| 2026-05-04 14:30 | 49.95198 | 9.35390 | 32696 ft | 464 kts | 141° |
| 2026-05-04 14:30 | 49.92855 | 9.38833 | 33060 ft | 463 kts | 141° |
| 2026-05-04 14:30 | 49.88182 | 9.45685 | 33788 ft | 462 kts | 142° |
| 2026-05-04 14:31 | 49.85848 | 9.49101 | 34109 ft | 461 kts | 142° |
| 2026-05-04 14:31 | 49.81184 | 9.55906 | 34685 ft | 460 kts | 141° |
| 2026-05-04 14:32 | 49.76521 | 9.62685 | 35210 ft | 460 kts | 141° |
| 2026-05-04 14:32 | 49.74190 | 9.66066 | 35497 ft | 459 kts | 141° |
| 2026-05-04 14:32 | 49.71860 | 9.69440 | 35779 ft | 458 kts | 141° |
| 2026-05-04 14:32 | 49.69534 | 9.72805 | 36045 ft | 458 kts | 141° |
| 2026-05-04 14:33 | 49.67212 | 9.76159 | 36283 ft | 457 kts | 141° |
| 2026-05-04 14:33 | 49.64921 | 9.79464 | 36554 ft | 457 kts | 141° |
| 2026-05-04 14:33 | 49.62572 | 9.82849 | 36814 ft | 456 kts | 141° |
| 2026-05-04 14:33 | 49.60249 | 9.86191 | 36990 ft | 457 kts | 141° |
| 2026-05-04 14:34 | 49.57927 | 9.89527 | 36996 ft | 456 kts | 141° |
| 2026-05-04 14:34 | 49.53288 | 9.96180 | 36982 ft | 456 kts | 141° |
| 2026-05-04 14:35 | 49.48672 | 10.02779 | 36992 ft | 455 kts | 141° |
| 2026-05-04 14:35 | 49.44031 | 10.09398 | 36994 ft | 455 kts | 141° |
| 2026-05-04 14:36 | 49.39384 | 10.16005 | 36994 ft | 455 kts | 141° |
| 2026-05-04 14:36 | 49.34730 | 10.22607 | 36996 ft | 455 kts | 141° |
| 2026-05-04 14:37 | 49.30043 | 10.29237 | 36980 ft | 456 kts | 141° |
| 2026-05-04 14:37 | 49.25409 | 10.35778 | 37003 ft | 456 kts | 141° |
| 2026-05-04 14:38 | 49.20837 | 10.42529 | 37010 ft | 457 kts | 139° |
| 2026-05-04 14:38 | 49.16285 | 10.49301 | 37007 ft | 457 kts | 140° |
| 2026-05-04 14:39 | 49.12027 | 10.56512 | 36986 ft | 462 kts | 125° |
| 2026-05-04 14:39 | 49.08488 | 10.64710 | 36951 ft | 463 kts | 127° |
| 2026-05-04 14:40 | 49.03056 | 10.76904 | 36998 ft | 464 kts | 127° |
| 2026-05-04 14:40 | 48.99425 | 10.85023 | 36985 ft | 463 kts | 127° |
| 2026-05-04 14:41 | 48.95794 | 10.93114 | 36979 ft | 463 kts | 127° |
| 2026-05-04 14:42 | 48.88523 | 11.09245 | 36958 ft | 463 kts | 127° |
| 2026-05-04 14:42 | 48.84868 | 11.17317 | 36931 ft | 463 kts | 127° |
| 2026-05-04 14:43 | 48.81216 | 11.25357 | 36956 ft | 463 kts | 127° |
| 2026-05-04 14:43 | 48.77559 | 11.33386 | 36938 ft | 462 kts | 128° |
| 2026-05-04 14:44 | 48.73897 | 11.41403 | 36929 ft | 463 kts | 127° |
| 2026-05-04 14:44 | 48.70218 | 11.49430 | 36942 ft | 464 kts | 127° |
| 2026-05-04 14:45 | 48.66535 | 11.57443 | 36938 ft | 464 kts | 128° |
| 2026-05-04 14:45 | 48.62843 | 11.65453 | 36940 ft | 464 kts | 128° |
| 2026-05-04 14:46 | 48.59172 | 11.73394 | 36938 ft | 464 kts | 128° |
| 2026-05-04 14:46 | 48.55468 | 11.81381 | 36940 ft | 464 kts | 128° |
| 2026-05-04 14:47 | 48.51763 | 11.89349 | 36949 ft | 463 kts | 128° |
| 2026-05-04 14:47 | 48.48056 | 11.97296 | 36938 ft | 463 kts | 128° |
| 2026-05-04 14:48 | 48.44950 | 12.03939 | 36941 ft | 463 kts | 128° |
| 2026-05-04 14:48 | 48.41229 | 12.11872 | 36940 ft | 463 kts | 128° |
| 2026-05-04 14:49 | 48.37538 | 12.19720 | 36930 ft | 462 kts | 128° |
| 2026-05-04 14:49 | 48.33818 | 12.27607 | 36935 ft | 462 kts | 128° |
| 2026-05-04 14:50 | 48.30095 | 12.35478 | 36924 ft | 462 kts | 128° |
| 2026-05-04 14:50 | 48.26363 | 12.43344 | 36917 ft | 462 kts | 128° |
| 2026-05-04 14:51 | 48.22627 | 12.51195 | 36921 ft | 462 kts | 128° |
| 2026-05-04 14:51 | 48.18888 | 12.59032 | 36915 ft | 462 kts | 128° |
| 2026-05-04 14:52 | 48.15142 | 12.66859 | 36914 ft | 462 kts | 128° |
| 2026-05-04 14:52 | 48.11480 | 12.74778 | 36918 ft | 462 kts | 127° |
| 2026-05-04 14:53 | 48.07824 | 12.82696 | 36913 ft | 462 kts | 127° |
| 2026-05-04 14:53 | 48.04158 | 12.90605 | 36906 ft | 462 kts | 127° |
| 2026-05-04 14:54 | 48.00517 | 12.98438 | 36915 ft | 462 kts | 127° |